createdAt,value
2023-02-03T00:02:13.896Z,5.37
2023-02-03T00:04:45.607Z,5.29
2023-02-03T00:07:14.038Z,5.39
2023-02-03T00:09:45.527Z,5.34
2023-02-03T00:12:14.411Z,5.26
2023-02-03T00:14:50.425Z,5.31
2023-02-03T00:17:24.543Z,5.34
2023-02-03T00:19:56.054Z,5.25
2023-02-03T00:22:24.468Z,4.96
2023-02-03T00:24:58.454Z,4.86
2023-02-03T00:27:29.820Z,4.92
2023-02-03T00:30:00.453Z,4.82
2023-02-03T00:32:30.191Z,4.80
2023-02-03T00:35:08.263Z,4.86
2023-02-03T00:37:51.970Z,4.73
2023-02-03T00:40:24.739Z,4.79
2023-02-03T00:42:55.031Z,4.79
2023-02-03T00:45:34.209Z,4.81
2023-02-03T00:48:07.221Z,4.85
2023-02-03T00:50:38.669Z,4.78
2023-02-03T00:53:09.713Z,4.76
2023-02-03T00:55:38.192Z,4.55
2023-02-03T00:58:12.416Z,4.68
2023-02-03T01:00:48.048Z,4.55
2023-02-03T01:03:47.596Z,4.58
2023-02-03T01:06:21.274Z,4.69
2023-02-03T01:08:58.784Z,4.70
2023-02-03T01:11:28.364Z,4.72
2023-02-03T01:14:03.227Z,4.69
2023-02-03T01:16:38.466Z,4.75
2023-02-03T01:19:12.430Z,4.64
2023-02-03T01:21:53.823Z,4.66
2023-02-03T01:24:37.575Z,4.59
2023-02-03T01:27:10.272Z,4.53
2023-02-03T01:29:56.465Z,4.47
2023-02-03T01:32:32.290Z,4.36
2023-02-03T01:35:07.293Z,4.41
2023-02-03T01:37:44.736Z,4.31
2023-02-03T01:40:18.369Z,4.46
2023-02-03T01:42:58.869Z,4.43
2023-02-03T01:45:34.823Z,4.56
2023-02-03T01:48:05.638Z,4.48
2023-02-03T01:50:37.525Z,4.34
2023-02-03T01:53:28.114Z,4.24
2023-02-03T01:55:56.599Z,4.08
2023-02-03T01:58:32.429Z,4.02
2023-02-03T02:01:09.085Z,4.02
2023-02-03T02:03:55.730Z,4.01
2023-02-03T02:06:45.609Z,4.14
2023-02-03T02:09:35.591Z,3.95
2023-02-03T02:12:06.644Z,4.10
2023-02-03T02:14:40.130Z,4.25
2023-02-03T02:17:37.388Z,4.39
2023-02-03T02:20:49.586Z,4.25
2023-02-03T02:23:37.728Z,4.26
2023-02-03T02:27:18.707Z,4.30
2023-02-03T02:31:13.691Z,4.52
2023-02-03T02:33:51.276Z,4.50
2023-02-03T02:37:08.740Z,4.44
2023-02-03T02:40:36.200Z,3.16
2023-02-03T02:43:34.167Z,2.49
2023-02-03T02:46:28.713Z,3.29
2023-02-03T02:49:09.689Z,3.81
2023-02-03T02:51:38.229Z,4.04
2023-02-03T02:54:12.150Z,4.10
2023-02-03T02:56:40.706Z,4.32
2023-02-03T02:59:15.849Z,4.54
2023-02-03T03:01:58.740Z,4.50
2023-02-03T03:04:31.042Z,3.81
2023-02-03T03:07:11.028Z,2.88
2023-02-03T03:09:43.229Z,2.15
2023-02-03T03:12:31.947Z,2.36
2023-02-03T03:15:16.861Z,3.15
2023-02-03T03:18:03.759Z,3.60
2023-02-03T03:20:33.071Z,3.82
2023-02-03T03:23:07.721Z,3.97
2023-02-03T03:25:49.291Z,4.21
2023-02-03T03:28:26.787Z,4.39
2023-02-03T03:30:55.267Z,4.58
2023-02-03T03:33:46.980Z,4.73
2023-02-03T03:36:26.166Z,4.69
2023-02-03T03:39:17.750Z,4.07
2023-02-03T03:41:54.688Z,2.95
2023-02-03T03:44:23.501Z,2.14
2023-02-03T03:47:17.583Z,1.57
2023-02-03T03:49:49.039Z,1.21
2023-02-03T03:52:22.153Z,2.11
2023-02-03T03:54:50.699Z,2.84
2023-02-03T03:57:43.914Z,3.29
2023-02-03T04:00:18.015Z,3.66
2023-02-03T04:02:49.542Z,3.95
2023-02-03T04:05:18.409Z,4.18
2023-02-03T04:07:50.393Z,4.22
2023-02-03T04:10:32.750Z,4.39
2023-02-03T04:13:07.882Z,4.59
2023-02-03T04:15:38.751Z,4.70
2023-02-03T04:18:27.646Z,4.76
2023-02-03T04:20:58.747Z,4.02
2023-02-03T04:23:27.463Z,3.03
2023-02-03T04:26:01.851Z,2.31
2023-02-03T04:28:35.249Z,1.72
2023-02-03T04:31:18.279Z,1.56
2023-02-03T04:34:19.898Z,2.31
2023-02-03T04:36:50.817Z,3.15
2023-02-03T04:39:22.829Z,3.54
2023-02-03T04:41:53.767Z,3.77
2023-02-03T04:44:36.757Z,3.98
2023-02-03T04:47:10.381Z,4.05
2023-02-03T04:49:41.126Z,4.25
2023-02-03T04:52:20.666Z,4.32
2023-02-03T04:55:04.806Z,4.36
2023-02-03T04:57:35.432Z,4.43
2023-02-03T05:00:24.008Z,4.55
2023-02-03T05:02:55.591Z,4.58
2023-02-03T05:05:26.574Z,4.74
2023-02-03T05:07:57.407Z,4.79
2023-02-03T05:10:37.357Z,4.82
2023-02-03T05:13:17.523Z,4.75
2023-02-03T05:15:48.822Z,3.73
2023-02-03T05:18:17.194Z,2.83
2023-02-03T05:20:48.701Z,2.69
2023-02-03T05:23:17.473Z,3.30
2023-02-03T05:25:49.333Z,3.66
2023-02-03T05:28:47.814Z,3.96
2023-02-03T05:31:16.443Z,4.26
2023-02-03T05:34:04.858Z,4.23
2023-02-03T05:36:58.821Z,4.39
2023-02-03T05:39:30.964Z,4.59
2023-02-03T05:41:59.640Z,4.63
2023-02-03T05:44:31.253Z,4.76
2023-02-03T05:47:05.643Z,4.90
2023-02-03T05:49:57.367Z,4.96
2023-02-03T05:52:28.510Z,4.94
2023-02-03T05:55:02.208Z,4.81
2023-02-03T05:57:45.540Z,4.80
2023-02-03T06:00:15.250Z,4.77
2023-02-03T06:03:05.216Z,4.70
2023-02-03T06:06:29.993Z,4.78
2023-02-03T06:09:26.083Z,4.76
2023-02-03T06:11:57.008Z,4.85
2023-02-03T06:14:35.307Z,4.86
2023-02-03T06:17:22.019Z,5.00
2023-02-03T06:19:53.498Z,5.11
2023-02-03T06:22:38.247Z,5.11
2023-02-03T06:25:17.464Z,5.11
2023-02-03T06:28:00.360Z,5.15
2023-02-03T06:30:31.788Z,5.12
2023-02-03T06:33:06.960Z,5.10
2023-02-03T06:35:35.646Z,5.04
2023-02-03T06:38:55.848Z,5.14
2023-02-03T06:41:51.508Z,5.25
2023-02-03T06:44:55.958Z,5.42
2023-02-03T06:47:35.415Z,5.50
2023-02-03T06:50:15.562Z,5.29
2023-02-03T06:53:18.375Z,4.31
2023-02-03T06:56:08.993Z,3.24
2023-02-03T06:58:44.714Z,3.41
2023-02-03T07:01:36.900Z,3.98
2023-02-03T07:04:05.832Z,4.45
2023-02-03T07:06:39.650Z,4.73
2023-02-03T07:09:13.847Z,4.76
2023-02-03T07:11:45.162Z,4.90
2023-02-03T07:14:16.745Z,5.05
2023-02-03T07:16:54.856Z,5.24
2023-02-03T07:19:28.348Z,4.52
2023-02-03T07:22:01.848Z,3.57
2023-02-03T07:24:50.497Z,2.91
2023-02-03T07:27:43.683Z,3.48
2023-02-03T07:30:15.622Z,4.16
2023-02-03T07:32:51.082Z,4.47
2023-02-03T07:35:19.549Z,4.50
2023-02-03T07:37:53.854Z,4.64
2023-02-03T07:40:31.246Z,4.84
2023-02-03T07:43:00.137Z,4.41
2023-02-03T07:45:33.665Z,3.46
2023-02-03T07:48:28.764Z,3.14
2023-02-03T07:51:01.982Z,3.67
2023-02-03T07:53:30.612Z,4.20
2023-02-03T07:56:05.674Z,4.54
2023-02-03T07:58:40.067Z,4.91
2023-02-03T08:01:32.560Z,5.17
2023-02-03T08:04:02.165Z,5.15
2023-02-03T08:06:30.796Z,4.29
2023-02-03T08:09:02.053Z,3.54
2023-02-03T08:11:33.413Z,3.01
2023-02-03T08:14:05.144Z,3.19
2023-02-03T08:16:36.798Z,4.04
2023-02-03T08:19:05.916Z,4.69
2023-02-03T08:22:00.383Z,5.17
2023-02-03T08:24:31.794Z,5.38
2023-02-03T08:27:01.405Z,4.72
2023-02-03T08:29:32.070Z,4.05
2023-02-03T08:32:09.089Z,3.66
2023-02-03T08:34:40.716Z,4.32
2023-02-03T08:37:12.459Z,5.10
2023-02-03T08:39:49.771Z,5.54
2023-02-03T08:42:28.566Z,5.85
2023-02-03T08:45:05.100Z,5.19
2023-02-03T08:47:36.999Z,4.39
2023-02-03T08:50:11.447Z,3.88
2023-02-03T08:52:44.707Z,4.18
2023-02-03T08:55:25.476Z,5.08
2023-02-03T08:57:56.321Z,5.78
2023-02-03T09:00:25.271Z,5.49
2023-02-03T09:03:34.545Z,4.76
2023-02-03T09:06:26.204Z,3.95
2023-02-03T09:09:05.098Z,3.42
2023-02-03T09:11:35.921Z,3.37
2023-02-03T09:14:25.494Z,4.32
2023-02-03T09:16:57.523Z,4.76
2023-02-03T09:19:28.750Z,4.38
2023-02-03T09:22:02.607Z,3.72
2023-02-03T09:24:34.365Z,3.23
2023-02-03T09:27:10.557Z,2.94
2023-02-03T09:29:41.566Z,3.10
2023-02-03T09:32:14.454Z,4.06
2023-02-03T09:34:43.976Z,4.87
2023-02-03T09:37:17.523Z,4.81
2023-02-03T09:39:48.996Z,4.08
2023-02-03T09:42:35.098Z,3.49
2023-02-03T09:45:58.161Z,3.09
2023-02-03T09:48:29.400Z,2.73
2023-02-03T09:51:03.374Z,2.51
2023-02-03T09:53:45.562Z,3.03
2023-02-03T09:56:36.940Z,4.10
2023-02-03T09:59:08.626Z,4.76
2023-02-03T10:02:49.526Z,4.45
2023-02-03T10:05:47.131Z,3.66
2023-02-03T10:08:45.914Z,3.14
2023-02-03T10:11:25.652Z,2.71
2023-02-03T10:14:11.957Z,2.45
2023-02-03T10:17:20.260Z,2.28
2023-02-03T10:20:22.734Z,2.15
2023-02-03T10:23:43.243Z,2.04
2023-02-03T10:26:21.742Z,2.01
2023-02-03T10:29:44.631Z,1.98
2023-02-03T10:32:16.433Z,1.93
2023-02-03T10:34:45.723Z,1.86
2023-02-03T10:37:40.563Z,1.82
2023-02-03T10:40:17.998Z,1.82
2023-02-03T10:43:07.843Z,1.85
2023-02-03T10:45:54.675Z,1.86
2023-02-03T10:48:26.754Z,1.88
2023-02-03T10:51:05.816Z,1.89
2023-02-03T10:53:36.111Z,1.94
2023-02-03T10:56:09.698Z,1.90
2023-02-03T10:58:46.535Z,1.83
2023-02-03T11:01:24.054Z,1.80
2023-02-03T11:04:04.051Z,1.77
2023-02-03T11:06:33.364Z,1.74
2023-02-03T11:09:01.651Z,1.79
2023-02-03T11:11:34.460Z,1.92
2023-02-03T11:14:02.651Z,2.09
2023-02-03T11:16:32.902Z,2.22
2023-02-03T11:19:06.442Z,2.32
2023-02-03T11:21:37.645Z,2.34
2023-02-03T11:24:23.115Z,2.35
2023-02-03T11:27:11.733Z,2.39
2023-02-03T11:29:48.034Z,2.45
2023-02-03T11:32:48.554Z,2.55
2023-02-03T11:35:40.218Z,2.69
2023-02-03T11:38:42.872Z,2.76
2023-02-03T11:41:21.378Z,2.70
2023-02-03T11:43:52.291Z,2.64
2023-02-03T11:46:40.724Z,2.51
2023-02-03T11:49:14.480Z,2.43
2023-02-03T11:52:28.509Z,2.31
2023-02-03T11:55:56.829Z,2.32
2023-02-03T11:59:44.146Z,2.35
2023-02-03T12:03:04.869Z,2.40
2023-02-03T12:05:55.421Z,2.51
2023-02-03T12:09:01.175Z,2.58
2023-02-03T12:12:09.324Z,2.69
2023-02-03T12:14:58.909Z,2.76
2023-02-03T12:18:11.506Z,2.82
2023-02-03T12:21:35.854Z,2.83
2023-02-03T12:24:37.706Z,2.91
2023-02-03T12:27:38.179Z,3.01
2023-02-03T12:30:16.283Z,3.11
2023-02-03T12:33:12.458Z,3.20
2023-02-03T12:35:55.339Z,3.32
2023-02-03T12:38:41.550Z,3.31
2023-02-03T12:41:14.640Z,3.25
2023-02-03T12:43:52.413Z,3.15
2023-02-03T12:46:46.139Z,3.08
2023-02-03T12:49:54.355Z,3.05
2023-02-03T12:53:06.278Z,3.00
2023-02-03T12:55:55.329Z,2.98
2023-02-03T12:58:38.340Z,2.94
2023-02-03T13:01:23.651Z,2.96
2023-02-03T13:04:38.805Z,2.98
2023-02-03T13:07:26.526Z,3.23
2023-02-03T13:10:23.654Z,4.95
2023-02-03T13:12:58.427Z,5.28
2023-02-03T13:15:39.382Z,4.85
2023-02-03T13:18:28.240Z,4.50
2023-02-03T13:20:57.147Z,4.18
2023-02-03T13:23:27.868Z,3.99
2023-02-03T13:26:31.530Z,3.82
2023-02-03T13:29:32.272Z,3.67
2023-02-03T13:32:35.050Z,3.56
2023-02-03T13:36:09.837Z,3.44
2023-02-03T13:39:39.670Z,3.33
2023-02-03T13:42:18.051Z,3.15
2023-02-03T13:44:50.288Z,3.04
2023-02-03T13:47:49.801Z,2.93
2023-02-03T13:50:26.529Z,2.84
2023-02-03T13:53:48.472Z,2.71
2023-02-03T13:56:43.781Z,2.58
2023-02-03T13:59:15.233Z,2.48
2023-02-03T14:01:43.416Z,2.37
2023-02-03T14:04:26.858Z,2.28
2023-02-03T14:07:00.869Z,2.20
2023-02-03T14:09:34.618Z,2.92
2023-02-03T14:12:21.379Z,4.18
2023-02-03T14:14:52.524Z,5.02
2023-02-03T14:17:36.141Z,5.51
2023-02-03T14:20:46.493Z,5.11
2023-02-03T14:23:34.337Z,4.19
2023-02-03T14:26:02.912Z,3.65
2023-02-03T14:28:54.078Z,3.30
2023-02-03T14:31:26.483Z,3.01
2023-02-03T14:34:13.049Z,2.76
2023-02-03T14:36:53.026Z,2.54
2023-02-03T14:39:38.692Z,2.34
2023-02-03T14:42:22.940Z,2.14
2023-02-03T14:46:12.801Z,1.96
2023-02-03T14:49:22.907Z,1.77
2023-02-03T14:51:54.659Z,1.67
2023-02-03T14:54:51.002Z,1.59
2023-02-03T14:57:25.345Z,1.93
2023-02-03T14:59:59.241Z,3.52
2023-02-03T15:02:33.864Z,5.22
2023-02-03T15:05:14.682Z,6.01
2023-02-03T15:07:52.632Z,5.24
2023-02-03T15:10:27.548Z,4.22
2023-02-03T15:13:01.062Z,3.50
2023-02-03T15:15:40.858Z,3.00
2023-02-03T15:18:28.347Z,2.59
2023-02-03T15:21:00.314Z,2.22
2023-02-03T15:23:41.836Z,1.94
2023-02-03T15:26:15.882Z,1.68
2023-02-03T15:28:44.109Z,1.49
2023-02-03T15:31:23.977Z,1.33
2023-02-03T15:33:53.779Z,1.68
2023-02-03T15:36:53.764Z,2.81
2023-02-03T15:39:39.724Z,3.91
2023-02-03T15:42:18.119Z,4.43
2023-02-03T15:45:12.246Z,3.98
2023-02-03T15:47:48.225Z,3.03
2023-02-03T15:50:25.568Z,2.46
2023-02-03T15:52:54.947Z,1.99
2023-02-03T15:55:36.462Z,1.67
2023-02-03T15:58:04.782Z,1.40
2023-02-03T16:00:39.741Z,1.33
2023-02-03T16:03:45.874Z,2.17
2023-02-03T16:06:18.736Z,3.27
2023-02-03T16:08:48.260Z,3.92
2023-02-03T16:11:34.340Z,4.38
2023-02-03T16:14:06.831Z,4.00
2023-02-03T16:16:37.459Z,3.19
2023-02-03T16:19:16.760Z,2.53
2023-02-03T16:21:55.319Z,2.04
2023-02-03T16:24:32.805Z,1.68
2023-02-03T16:27:33.829Z,1.42
2023-02-03T16:30:26.627Z,2.00
2023-02-03T16:33:29.002Z,3.19
2023-02-03T16:36:17.759Z,4.19
2023-02-03T16:39:05.857Z,4.70
2023-02-03T16:41:52.359Z,4.09
2023-02-03T16:44:39.025Z,3.10
2023-02-03T16:47:48.376Z,2.40
2023-02-03T16:50:40.343Z,1.93
2023-02-03T16:53:16.916Z,1.61
2023-02-03T16:55:48.330Z,1.50
2023-02-03T16:58:17.397Z,2.29
2023-02-03T17:00:47.397Z,3.38
2023-02-03T17:03:17.680Z,4.00
2023-02-03T17:05:46.827Z,4.44
2023-02-03T17:08:20.855Z,4.70
2023-02-03T17:10:49.526Z,4.94
2023-02-03T17:13:22.210Z,4.99
2023-02-03T17:15:53.646Z,4.37
2023-02-03T17:18:22.089Z,3.40
2023-02-03T17:21:04.850Z,2.74
2023-02-03T17:23:33.164Z,2.89
2023-02-03T17:26:01.393Z,3.50
2023-02-03T17:28:29.874Z,3.96
2023-02-03T17:31:03.250Z,4.23
2023-02-03T17:33:33.379Z,4.47
2023-02-03T17:36:22.067Z,4.25
2023-02-03T17:55:33.125Z,4.54
2023-02-03T17:58:02.100Z,4.58
2023-02-03T18:00:30.657Z,4.62
2023-02-03T18:03:01.318Z,4.64
2023-02-03T18:05:29.685Z,4.60
2023-02-03T18:08:01.051Z,4.63
2023-02-03T18:10:34.541Z,4.70
2023-02-03T18:13:02.719Z,4.69
2023-02-03T18:15:38.715Z,4.71
2023-02-03T18:18:08.082Z,4.59
2023-02-03T18:20:45.054Z,4.77
2023-02-03T18:23:27.429Z,4.97
2023-02-03T18:26:05.251Z,5.17
2023-02-03T18:28:33.856Z,5.13
2023-02-03T18:31:23.097Z,5.12
2023-02-03T18:33:54.614Z,5.04
2023-02-03T18:36:22.997Z,5.15
2023-02-03T18:38:54.669Z,5.16
2023-02-03T18:41:25.744Z,5.16
2023-02-03T18:43:54.240Z,4.95
2023-02-03T18:46:28.710Z,4.90
2023-02-03T18:48:57.552Z,4.80
2023-02-03T18:51:26.546Z,4.81
2023-02-03T18:53:58.976Z,4.88
2023-02-03T18:56:35.852Z,4.80
2023-02-03T18:59:08.923Z,4.70
2023-02-03T19:01:46.667Z,4.52
2023-02-03T19:04:15.502Z,4.59
2023-02-03T19:07:18.892Z,4.46
2023-02-03T19:09:52.641Z,4.37
2023-02-03T19:12:25.792Z,4.47
2023-02-03T19:14:56.778Z,4.51
2023-02-03T19:17:30.222Z,4.45
2023-02-03T19:19:58.516Z,4.69
2023-02-03T19:22:30.121Z,4.76
2023-02-03T19:25:01.700Z,4.82
2023-02-03T19:27:29.707Z,4.82
2023-02-03T19:29:57.910Z,4.80
2023-02-03T19:32:26.227Z,4.81
2023-02-03T19:34:54.454Z,4.93
2023-02-03T19:37:22.517Z,4.92
2023-02-03T19:39:51.710Z,4.81
2023-02-03T19:42:19.996Z,4.66
2023-02-03T19:44:48.379Z,4.83
2023-02-03T19:47:16.880Z,4.75
2023-02-03T19:49:44.979Z,4.63
2023-02-03T19:52:13.196Z,4.70
2023-02-03T19:54:41.265Z,4.73
2023-02-03T19:57:09.414Z,4.83
2023-02-03T19:59:37.626Z,4.77
2023-02-03T20:02:13.694Z,4.82
2023-02-03T20:04:44.153Z,4.97
2023-02-03T20:07:14.137Z,4.95
2023-02-03T20:09:45.005Z,4.89
2023-02-03T20:12:13.503Z,4.74
2023-02-03T20:14:44.792Z,4.68
2023-02-03T20:17:13.330Z,4.91
2023-02-03T20:19:41.618Z,4.95
2023-02-03T20:22:09.894Z,5.13
2023-02-03T20:24:38.451Z,5.32
2023-02-03T20:27:07.066Z,5.38
2023-02-03T20:29:35.466Z,5.44
2023-02-03T20:32:07.326Z,5.60
2023-02-03T20:34:35.773Z,5.70
2023-02-03T20:37:04.106Z,5.81
2023-02-03T20:39:32.585Z,5.75
2023-02-03T20:42:01.009Z,5.75
2023-02-03T20:44:36.776Z,5.66
2023-02-03T20:47:09.851Z,5.51
2023-02-03T20:49:37.923Z,5.46
2023-02-03T20:52:11.931Z,5.50
2023-02-03T20:54:40.577Z,5.29
2023-02-03T20:57:17.819Z,5.38
2023-02-03T20:59:46.236Z,5.34
2023-02-03T21:02:23.434Z,5.23
2023-02-03T21:04:58.061Z,5.18
2023-02-03T21:07:30.924Z,5.24
2023-02-03T21:10:00.023Z,5.31
2023-02-03T21:12:28.554Z,5.36
2023-02-03T21:14:57.184Z,5.43
2023-02-03T21:17:26.398Z,5.42
2023-02-03T21:19:55.333Z,5.36
2023-02-03T21:22:27.415Z,5.42
2023-02-03T21:24:59.923Z,5.52
2023-02-03T21:27:30.666Z,5.57
2023-02-03T21:30:01.040Z,5.53
2023-02-03T21:32:44.226Z,5.50
2023-02-03T21:35:37.178Z,5.72
2023-02-03T21:38:30.906Z,5.72
2023-02-03T21:41:01.296Z,5.74
2023-02-03T21:43:30.274Z,5.76
2023-02-03T21:45:58.715Z,5.82
2023-02-03T21:48:38.236Z,5.85
2023-02-03T21:51:23.053Z,5.85
2023-02-03T21:53:59.782Z,5.80
2023-02-03T21:56:38.366Z,5.82
2023-02-03T21:59:18.820Z,5.82
2023-02-03T22:01:47.531Z,5.92
2023-02-03T22:04:16.184Z,5.93
2023-02-03T22:06:49.566Z,5.98
2023-02-03T22:09:20.157Z,5.96
2023-02-03T22:11:48.316Z,5.88
2023-02-03T22:14:20.845Z,5.91
2023-02-03T22:16:49.468Z,5.93
2023-02-03T22:19:18.076Z,5.86
2023-02-03T22:21:50.891Z,5.90
2023-02-03T22:24:21.716Z,5.92
2023-02-03T22:27:00.518Z,6.01
2023-02-03T22:29:28.925Z,6.07
2023-02-03T22:31:57.321Z,6.11
2023-02-03T22:34:26.299Z,6.13
2023-02-03T22:36:54.477Z,6.24
2023-02-03T22:39:22.848Z,6.31
2023-02-03T22:42:01.111Z,6.39
2023-02-03T22:44:45.692Z,6.43
2023-02-03T22:47:14.130Z,6.45
2023-02-03T22:49:54.115Z,6.42
2023-02-03T22:52:22.496Z,6.51
2023-02-03T22:54:56.468Z,6.58
2023-02-03T22:57:24.850Z,6.63
2023-02-03T22:59:53.037Z,6.68
2023-02-03T23:02:24.271Z,6.18
2023-02-03T23:04:54.891Z,5.16
2023-02-03T23:07:23.074Z,4.31
2023-02-03T23:09:51.083Z,3.69
2023-02-03T23:12:19.374Z,3.69
2023-02-03T23:14:50.713Z,4.47
2023-02-03T23:17:18.714Z,5.06
2023-02-03T23:19:46.978Z,5.45
2023-02-03T23:22:15.941Z,5.76
2023-02-03T23:24:44.431Z,6.02
2023-02-03T23:27:12.559Z,6.24
2023-02-03T23:29:41.483Z,6.44
2023-02-03T23:32:11.065Z,6.62
2023-02-03T23:35:03.573Z,6.71
2023-02-03T23:37:31.947Z,6.76
2023-02-03T23:40:00.536Z,6.83
2023-02-03T23:42:37.484Z,6.29
2023-02-03T23:45:08.219Z,5.17
2023-02-03T23:47:36.443Z,4.33
2023-02-03T23:50:19.026Z,3.87
2023-02-03T23:52:58.343Z,4.45
2023-02-03T23:55:26.706Z,5.11
2023-02-03T23:57:57.439Z,5.58
